sensor_id;sensor_type;location;lat;lon;timestamp;P1;durP1;ratioP1;P2;durP2;ratioP2
67986;SDS011;54767;53.800;15.956;2023-02-11T00:01:29;38.90;;;16.80;;
67986;SDS011;54767;53.800;15.956;2023-02-11T00:04:00;32.70;;;16.70;;
67986;SDS011;54767;53.800;15.956;2023-02-11T00:06:29;34.10;;;16.40;;
67986;SDS011;54767;53.800;15.956;2023-02-11T00:08:58;34.50;;;16.10;;
67986;SDS011;54767;53.800;15.956;2023-02-11T00:11:27;38.30;;;15.80;;
67986;SDS011;54767;53.800;15.956;2023-02-11T00:14:02;35.40;;;15.70;;
67986;SDS011;54767;53.800;15.956;2023-02-11T00:16:34;30.70;;;15.50;;
67986;SDS011;54767;53.800;15.956;2023-02-11T00:19:03;30.50;;;16.00;;
67986;SDS011;54767;53.800;15.956;2023-02-11T00:21:33;31.60;;;15.40;;
67986;SDS011;54767;53.800;15.956;2023-02-11T00:24:02;32.20;;;15.10;;
67986;SDS011;54767;53.800;15.956;2023-02-11T00:26:32;30.40;;;15.30;;
67986;SDS011;54767;53.800;15.956;2023-02-11T00:29:02;27.20;;;13.80;;
67986;SDS011;54767;53.800;15.956;2023-02-11T00:31:31;32.40;;;14.50;;
67986;SDS011;54767;53.800;15.956;2023-02-11T00:34:00;31.20;;;14.00;;
67986;SDS011;54767;53.800;15.956;2023-02-11T00:36:29;28.00;;;14.50;;
67986;SDS011;54767;53.800;15.956;2023-02-11T00:38:58;30.80;;;15.00;;
67986;SDS011;54767;53.800;15.956;2023-02-11T00:41:27;34.70;;;14.50;;
67986;SDS011;54767;53.800;15.956;2023-02-11T00:43:55;28.70;;;14.90;;
67986;SDS011;54767;53.800;15.956;2023-02-11T00:46:23;31.40;;;14.80;;
67986;SDS011;54767;53.800;15.956;2023-02-11T00:48:52;29.60;;;14.50;;
67986;SDS011;54767;53.800;15.956;2023-02-11T00:51:25;30.20;;;14.60;;
67986;SDS011;54767;53.800;15.956;2023-02-11T00:53:55;30.40;;;14.60;;
67986;SDS011;54767;53.800;15.956;2023-02-11T00:56:23;29.70;;;14.50;;
67986;SDS011;54767;53.800;15.956;2023-02-11T00:58:52;33.40;;;13.90;;
67986;SDS011;54767;53.800;15.956;2023-02-11T01:01:21;29.10;;;14.10;;
67986;SDS011;54767;53.800;15.956;2023-02-11T01:03:49;29.40;;;13.70;;
67986;SDS011;54767;53.800;15.956;2023-02-11T01:06:18;33.70;;;15.10;;
67986;SDS011;54767;53.800;15.956;2023-02-11T01:08:46;30.50;;;14.60;;
67986;SDS011;54767;53.800;15.956;2023-02-11T01:11:16;30.20;;;14.80;;
67986;SDS011;54767;53.800;15.956;2023-02-11T01:13:46;32.40;;;15.90;;
67986;SDS011;54767;53.800;15.956;2023-02-11T01:16:17;30.90;;;14.30;;
67986;SDS011;54767;53.800;15.956;2023-02-11T01:18:46;30.60;;;14.10;;
67986;SDS011;54767;53.800;15.956;2023-02-11T01:21:14;32.30;;;15.00;;
67986;SDS011;54767;53.800;15.956;2023-02-11T01:23:43;29.20;;;14.50;;
67986;SDS011;54767;53.800;15.956;2023-02-11T01:26:12;31.00;;;15.50;;
67986;SDS011;54767;53.800;15.956;2023-02-11T01:28:40;31.50;;;14.90;;
67986;SDS011;54767;53.800;15.956;2023-02-11T01:31:09;34.20;;;15.50;;
67986;SDS011;54767;53.800;15.956;2023-02-11T01:33:37;30.90;;;15.40;;
67986;SDS011;54767;53.800;15.956;2023-02-11T01:36:06;32.30;;;14.40;;
67986;SDS011;54767;53.800;15.956;2023-02-11T01:38:35;33.90;;;15.20;;
67986;SDS011;54767;53.800;15.956;2023-02-11T01:41:05;34.60;;;15.40;;
67986;SDS011;54767;53.800;15.956;2023-02-11T01:43:38;31.00;;;15.30;;
67986;SDS011;54767;53.800;15.956;2023-02-11T01:48:49;32.80;;;14.60;;
67986;SDS011;54767;53.800;15.956;2023-02-11T01:51:26;27.10;;;14.10;;
67986;SDS011;54767;53.800;15.956;2023-02-11T01:53:59;32.20;;;15.40;;
67986;SDS011;54767;53.800;15.956;2023-02-11T01:56:48;34.70;;;15.70;;
67986;SDS011;54767;53.800;15.956;2023-02-11T01:59:44;32.90;;;15.90;;
67986;SDS011;54767;53.800;15.956;2023-02-11T02:02:20;30.40;;;14.80;;
67986;SDS011;54767;53.800;15.956;2023-02-11T02:04:59;31.30;;;15.90;;
67986;SDS011;54767;53.800;15.956;2023-02-11T02:10:45;31.80;;;16.10;;
67986;SDS011;54767;53.800;15.956;2023-02-11T02:13:15;39.30;;;16.90;;
67986;SDS011;54767;53.800;15.956;2023-02-11T02:15:48;33.60;;;16.60;;
67986;SDS011;54767;53.800;15.956;2023-02-11T02:37:56;37.20;;;17.10;;
67986;SDS011;54767;53.800;15.956;2023-02-11T02:40:30;32.80;;;17.50;;
67986;SDS011;54767;53.800;15.956;2023-02-11T02:43:03;36.80;;;17.00;;
67986;SDS011;54767;53.800;15.956;2023-02-11T02:45:33;37.30;;;17.10;;
67986;SDS011;54767;53.800;15.956;2023-02-11T02:48:02;37.30;;;17.80;;
67986;SDS011;54767;53.800;15.956;2023-02-11T02:50:31;36.60;;;17.80;;
67986;SDS011;54767;53.800;15.956;2023-02-11T02:53:17;38.00;;;18.60;;
67986;SDS011;54767;53.800;15.956;2023-02-11T02:56:12;36.70;;;17.20;;
67986;SDS011;54767;53.800;15.956;2023-02-11T03:09:47;37.30;;;18.30;;
67986;SDS011;54767;53.800;15.956;2023-02-11T03:12:21;36.30;;;18.40;;
67986;SDS011;54767;53.800;15.956;2023-02-11T03:17:20;37.90;;;17.10;;
67986;SDS011;54767;53.800;15.956;2023-02-11T03:19:50;40.00;;;18.00;;
67986;SDS011;54767;53.800;15.956;2023-02-11T03:22:21;37.60;;;17.70;;
67986;SDS011;54767;53.800;15.956;2023-02-11T03:24:57;39.40;;;18.50;;
67986;SDS011;54767;53.800;15.956;2023-02-11T03:27:29;35.60;;;18.80;;
67986;SDS011;54767;53.800;15.956;2023-02-11T03:30:10;37.60;;;18.20;;
67986;SDS011;54767;53.800;15.956;2023-02-11T03:32:50;36.50;;;17.70;;
67986;SDS011;54767;53.800;15.956;2023-02-11T03:35:23;39.60;;;18.20;;
67986;SDS011;54767;53.800;15.956;2023-02-11T03:38:13;39.90;;;18.70;;
67986;SDS011;54767;53.800;15.956;2023-02-11T03:40:47;40.90;;;18.50;;
67986;SDS011;54767;53.800;15.956;2023-02-11T03:43:19;36.70;;;17.70;;
67986;SDS011;54767;53.800;15.956;2023-02-11T03:45:50;38.30;;;19.60;;
67986;SDS011;54767;53.800;15.956;2023-02-11T03:48:26;38.40;;;19.20;;
67986;SDS011;54767;53.800;15.956;2023-02-11T03:50:59;41.10;;;19.50;;
67986;SDS011;54767;53.800;15.956;2023-02-11T03:53:29;36.20;;;18.90;;
67986;SDS011;54767;53.800;15.956;2023-02-11T03:55:59;37.40;;;18.90;;
67986;SDS011;54767;53.800;15.956;2023-02-11T03:58:30;39.70;;;20.30;;
67986;SDS011;54767;53.800;15.956;2023-02-11T04:00:58;38.40;;;19.10;;
67986;SDS011;54767;53.800;15.956;2023-02-11T04:03:29;38.50;;;19.20;;
67986;SDS011;54767;53.800;15.956;2023-02-11T04:05:59;36.20;;;18.10;;
67986;SDS011;54767;53.800;15.956;2023-02-11T04:08:28;38.80;;;18.10;;
67986;SDS011;54767;53.800;15.956;2023-02-11T04:10:56;36.90;;;18.50;;
67986;SDS011;54767;53.800;15.956;2023-02-11T04:13:25;41.40;;;20.40;;
67986;SDS011;54767;53.800;15.956;2023-02-11T04:15:54;45.20;;;20.40;;
67986;SDS011;54767;53.800;15.956;2023-02-11T04:18:22;39.50;;;19.50;;
67986;SDS011;54767;53.800;15.956;2023-02-11T04:20:50;35.80;;;18.50;;
67986;SDS011;54767;53.800;15.956;2023-02-11T04:23:18;42.10;;;20.60;;
67986;SDS011;54767;53.800;15.956;2023-02-11T04:25:49;40.00;;;19.30;;
67986;SDS011;54767;53.800;15.956;2023-02-11T04:28:18;41.00;;;20.60;;
67986;SDS011;54767;53.800;15.956;2023-02-11T04:30:48;42.10;;;20.60;;
67986;SDS011;54767;53.800;15.956;2023-02-11T04:33:17;37.60;;;20.40;;
67986;SDS011;54767;53.800;15.956;2023-02-11T04:35:46;40.30;;;20.70;;
67986;SDS011;54767;53.800;15.956;2023-02-11T04:38:15;39.10;;;19.90;;
67986;SDS011;54767;53.800;15.956;2023-02-11T04:40:43;39.80;;;19.40;;
67986;SDS011;54767;53.800;15.956;2023-02-11T04:43:12;42.60;;;21.40;;
67986;SDS011;54767;53.800;15.956;2023-02-11T04:45:40;41.30;;;20.60;;
67986;SDS011;54767;53.800;15.956;2023-02-11T04:48:08;43.40;;;21.90;;
67986;SDS011;54767;53.800;15.956;2023-02-11T04:50:36;44.10;;;21.90;;
67986;SDS011;54767;53.800;15.956;2023-02-11T04:53:05;43.90;;;22.50;;
67986;SDS011;54767;53.800;15.956;2023-02-11T04:55:33;40.90;;;21.10;;
67986;SDS011;54767;53.800;15.956;2023-02-11T04:58:01;45.10;;;20.40;;
67986;SDS011;54767;53.800;15.956;2023-02-11T05:00:30;40.10;;;21.20;;
67986;SDS011;54767;53.800;15.956;2023-02-11T05:02:58;42.60;;;21.20;;
67986;SDS011;54767;53.800;15.956;2023-02-11T05:05:26;44.00;;;22.80;;
67986;SDS011;54767;53.800;15.956;2023-02-11T05:07:55;44.40;;;21.30;;
67986;SDS011;54767;53.800;15.956;2023-02-11T05:10:24;40.60;;;20.40;;
67986;SDS011;54767;53.800;15.956;2023-02-11T05:12:52;43.10;;;21.40;;
67986;SDS011;54767;53.800;15.956;2023-02-11T05:15:22;39.00;;;21.20;;
67986;SDS011;54767;53.800;15.956;2023-02-11T05:17:51;40.70;;;20.00;;
67986;SDS011;54767;53.800;15.956;2023-02-11T05:20:20;43.60;;;22.10;;
67986;SDS011;54767;53.800;15.956;2023-02-11T05:22:48;41.20;;;21.50;;
67986;SDS011;54767;53.800;15.956;2023-02-11T05:25:17;42.70;;;22.30;;
67986;SDS011;54767;53.800;15.956;2023-02-11T05:27:45;41.50;;;20.90;;
67986;SDS011;54767;53.800;15.956;2023-02-11T05:30:13;42.40;;;22.80;;
67986;SDS011;54767;53.800;15.956;2023-02-11T05:32:42;42.90;;;21.40;;
67986;SDS011;54767;53.800;15.956;2023-02-11T05:35:10;40.10;;;22.10;;
67986;SDS011;54767;53.800;15.956;2023-02-11T05:37:38;46.20;;;22.40;;
67986;SDS011;54767;53.800;15.956;2023-02-11T05:40:07;48.70;;;23.80;;
67986;SDS011;54767;53.800;15.956;2023-02-11T05:42:36;44.90;;;23.10;;
67986;SDS011;54767;53.800;15.956;2023-02-11T05:45:04;47.00;;;23.20;;
67986;SDS011;54767;53.800;15.956;2023-02-11T05:47:32;48.30;;;23.90;;
67986;SDS011;54767;53.800;15.956;2023-02-11T05:50:01;43.90;;;22.90;;
67986;SDS011;54767;53.800;15.956;2023-02-11T05:52:29;44.50;;;22.90;;
67986;SDS011;54767;53.800;15.956;2023-02-11T05:54:57;47.40;;;23.90;;
67986;SDS011;54767;53.800;15.956;2023-02-11T05:57:25;46.80;;;23.50;;
67986;SDS011;54767;53.800;15.956;2023-02-11T05:59:54;48.80;;;22.60;;
67986;SDS011;54767;53.800;15.956;2023-02-11T06:02:22;44.60;;;22.20;;
67986;SDS011;54767;53.800;15.956;2023-02-11T06:04:51;47.70;;;24.10;;
67986;SDS011;54767;53.800;15.956;2023-02-11T06:07:19;45.80;;;22.90;;
67986;SDS011;54767;53.800;15.956;2023-02-11T06:09:47;46.70;;;23.00;;
67986;SDS011;54767;53.800;15.956;2023-02-11T06:12:16;47.20;;;24.10;;
67986;SDS011;54767;53.800;15.956;2023-02-11T06:14:44;46.50;;;23.00;;
67986;SDS011;54767;53.800;15.956;2023-02-11T06:17:12;42.50;;;22.30;;
67986;SDS011;54767;53.800;15.956;2023-02-11T06:22:10;49.70;;;22.60;;
67986;SDS011;54767;53.800;15.956;2023-02-11T06:24:38;45.50;;;23.30;;
67986;SDS011;54767;53.800;15.956;2023-02-11T06:27:27;50.20;;;23.40;;
67986;SDS011;54767;53.800;15.956;2023-02-11T06:29:55;48.40;;;22.90;;
67986;SDS011;54767;53.800;15.956;2023-02-11T06:32:25;50.20;;;24.00;;
67986;SDS011;54767;53.800;15.956;2023-02-11T06:35:11;47.20;;;23.80;;
67986;SDS011;54767;53.800;15.956;2023-02-11T06:37:41;50.20;;;23.40;;
67986;SDS011;54767;53.800;15.956;2023-02-11T06:40:10;48.30;;;22.80;;
67986;SDS011;54767;53.800;15.956;2023-02-11T06:42:39;52.60;;;25.50;;
67986;SDS011;54767;53.800;15.956;2023-02-11T06:45:07;49.40;;;24.90;;
67986;SDS011;54767;53.800;15.956;2023-02-11T06:47:40;53.80;;;24.10;;
67986;SDS011;54767;53.800;15.956;2023-02-11T06:50:11;48.50;;;24.00;;
67986;SDS011;54767;53.800;15.956;2023-02-11T06:52:41;48.30;;;24.70;;
67986;SDS011;54767;53.800;15.956;2023-02-11T06:55:09;49.20;;;23.80;;
67986;SDS011;54767;53.800;15.956;2023-02-11T06:57:38;50.70;;;24.70;;
67986;SDS011;54767;53.800;15.956;2023-02-11T07:00:06;48.60;;;25.20;;
67986;SDS011;54767;53.800;15.956;2023-02-11T07:02:36;47.80;;;24.60;;
67986;SDS011;54767;53.800;15.956;2023-02-11T07:05:05;46.80;;;22.70;;
67986;SDS011;54767;53.800;15.956;2023-02-11T07:07:35;50.20;;;24.40;;
67986;SDS011;54767;53.800;15.956;2023-02-11T07:10:04;49.10;;;24.50;;
67986;SDS011;54767;53.800;15.956;2023-02-11T07:12:33;49.70;;;24.50;;
67986;SDS011;54767;53.800;15.956;2023-02-11T07:15:02;50.40;;;24.80;;
67986;SDS011;54767;53.800;15.956;2023-02-11T07:17:30;52.90;;;25.90;;
67986;SDS011;54767;53.800;15.956;2023-02-11T07:22:29;56.50;;;25.50;;
67986;SDS011;54767;53.800;15.956;2023-02-11T07:24:57;54.50;;;24.90;;
67986;SDS011;54767;53.800;15.956;2023-02-11T07:27:25;52.20;;;25.50;;
67986;SDS011;54767;53.800;15.956;2023-02-11T07:29:54;56.70;;;26.60;;
67986;SDS011;54767;53.800;15.956;2023-02-11T07:32:22;47.50;;;25.10;;
67986;SDS011;54767;53.800;15.956;2023-02-11T07:34:50;51.90;;;25.00;;
67986;SDS011;54767;53.800;15.956;2023-02-11T07:37:18;52.00;;;24.60;;
67986;SDS011;54767;53.800;15.956;2023-02-11T07:39:47;51.40;;;24.40;;
67986;SDS011;54767;53.800;15.956;2023-02-11T07:42:15;53.70;;;25.60;;
67986;SDS011;54767;53.800;15.956;2023-02-11T07:44:44;53.90;;;24.30;;
67986;SDS011;54767;53.800;15.956;2023-02-11T07:47:17;49.90;;;24.20;;
67986;SDS011;54767;53.800;15.956;2023-02-11T07:49:45;48.20;;;23.90;;
67986;SDS011;54767;53.800;15.956;2023-02-11T07:52:14;48.90;;;23.50;;
67986;SDS011;54767;53.800;15.956;2023-02-11T07:54:42;44.40;;;22.70;;
67986;SDS011;54767;53.800;15.956;2023-02-11T07:57:11;47.50;;;23.00;;
67986;SDS011;54767;53.800;15.956;2023-02-11T07:59:39;44.40;;;21.90;;
67986;SDS011;54767;53.800;15.956;2023-02-11T08:02:07;49.40;;;23.70;;
67986;SDS011;54767;53.800;15.956;2023-02-11T08:04:36;47.00;;;22.00;;
67986;SDS011;54767;53.800;15.956;2023-02-11T08:07:05;42.80;;;21.20;;
67986;SDS011;54767;53.800;15.956;2023-02-11T08:09:33;42.10;;;21.00;;
67986;SDS011;54767;53.800;15.956;2023-02-11T08:12:02;44.00;;;22.50;;
67986;SDS011;54767;53.800;15.956;2023-02-11T08:14:30;41.70;;;22.40;;
67986;SDS011;54767;53.800;15.956;2023-02-11T08:16:59;40.10;;;19.10;;
67986;SDS011;54767;53.800;15.956;2023-02-11T08:19:27;40.00;;;20.80;;
67986;SDS011;54767;53.800;15.956;2023-02-11T08:21:56;41.50;;;21.60;;
67986;SDS011;54767;53.800;15.956;2023-02-11T08:24:26;40.00;;;20.90;;
67986;SDS011;54767;53.800;15.956;2023-02-11T08:26:54;45.70;;;21.90;;
67986;SDS011;54767;53.800;15.956;2023-02-11T08:29:23;39.50;;;20.30;;
67986;SDS011;54767;53.800;15.956;2023-02-11T08:31:51;41.10;;;20.30;;
67986;SDS011;54767;53.800;15.956;2023-02-11T08:34:19;40.90;;;20.60;;
67986;SDS011;54767;53.800;15.956;2023-02-11T08:36:48;38.60;;;18.50;;
67986;SDS011;54767;53.800;15.956;2023-02-11T08:39:18;42.00;;;20.60;;
67986;SDS011;54767;53.800;15.956;2023-02-11T08:41:52;38.80;;;20.10;;
67986;SDS011;54767;53.800;15.956;2023-02-11T08:44:23;40.80;;;20.70;;
67986;SDS011;54767;53.800;15.956;2023-02-11T08:46:53;39.30;;;19.80;;
67986;SDS011;54767;53.800;15.956;2023-02-11T08:49:21;39.80;;;19.10;;
67986;SDS011;54767;53.800;15.956;2023-02-11T08:51:50;38.80;;;19.70;;
67986;SDS011;54767;53.800;15.956;2023-02-11T08:54:18;39.80;;;19.70;;
67986;SDS011;54767;53.800;15.956;2023-02-11T08:56:49;35.40;;;18.70;;
67986;SDS011;54767;53.800;15.956;2023-02-11T08:59:18;36.30;;;18.90;;
67986;SDS011;54767;53.800;15.956;2023-02-11T09:01:46;33.70;;;18.10;;
67986;SDS011;54767;53.800;15.956;2023-02-11T09:04:14;35.60;;;18.70;;
67986;SDS011;54767;53.800;15.956;2023-02-11T09:06:43;33.90;;;17.70;;
67986;SDS011;54767;53.800;15.956;2023-02-11T09:09:11;31.00;;;17.60;;
67986;SDS011;54767;53.800;15.956;2023-02-11T09:11:42;29.00;;;16.40;;
67986;SDS011;54767;53.800;15.956;2023-02-11T09:14:18;29.30;;;16.50;;
67986;SDS011;54767;53.800;15.956;2023-02-11T09:16:49;33.00;;;17.70;;
67986;SDS011;54767;53.800;15.956;2023-02-11T09:19:19;31.70;;;16.30;;
67986;SDS011;54767;53.800;15.956;2023-02-11T09:21:48;31.60;;;17.90;;
67986;SDS011;54767;53.800;15.956;2023-02-11T09:24:17;29.40;;;14.70;;
67986;SDS011;54767;53.800;15.956;2023-02-11T09:26:46;28.40;;;15.60;;
67986;SDS011;54767;53.800;15.956;2023-02-11T09:29:14;28.00;;;16.20;;
67986;SDS011;54767;53.800;15.956;2023-02-11T09:31:43;28.30;;;15.00;;
67986;SDS011;54767;53.800;15.956;2023-02-11T09:34:11;26.30;;;14.30;;
67986;SDS011;54767;53.800;15.956;2023-02-11T09:36:40;26.50;;;14.50;;
67986;SDS011;54767;53.800;15.956;2023-02-11T09:39:13;29.90;;;15.50;;
67986;SDS011;54767;53.800;15.956;2023-02-11T09:44:37;28.60;;;14.20;;
67986;SDS011;54767;53.800;15.956;2023-02-11T09:47:16;26.50;;;14.80;;
67986;SDS011;54767;53.800;15.956;2023-02-11T09:49:59;28.30;;;15.00;;
67986;SDS011;54767;53.800;15.956;2023-02-11T09:55:38;28.60;;;14.80;;
67986;SDS011;54767;53.800;15.956;2023-02-11T09:58:13;25.60;;;13.90;;
67986;SDS011;54767;53.800;15.956;2023-02-11T10:00:47;27.20;;;15.20;;
67986;SDS011;54767;53.800;15.956;2023-02-11T10:03:35;23.10;;;12.80;;
67986;SDS011;54767;53.800;15.956;2023-02-11T10:16:52;18.50;;;9.00;;
67986;SDS011;54767;53.800;15.956;2023-02-11T10:19:40;16.60;;;9.00;;
67986;SDS011;54767;53.800;15.956;2023-02-11T10:25:56;15.40;;;8.40;;
67986;SDS011;54767;53.800;15.956;2023-02-11T10:28:10;17.00;;;8.20;;
67986;SDS011;54767;53.800;15.956;2023-02-11T10:33:28;12.70;;;6.70;;
67986;SDS011;54767;53.800;15.956;2023-02-11T10:36:02;13.30;;;7.00;;
67986;SDS011;54767;53.800;15.956;2023-02-11T10:38:31;12.90;;;6.80;;
67986;SDS011;54767;53.800;15.956;2023-02-11T10:41:00;14.20;;;7.00;;
67986;SDS011;54767;53.800;15.956;2023-02-11T10:43:29;17.20;;;8.50;;
67986;SDS011;54767;53.800;15.956;2023-02-11T10:45:59;14.10;;;7.20;;
67986;SDS011;54767;53.800;15.956;2023-02-11T10:48:44;14.40;;;7.30;;
67986;SDS011;54767;53.800;15.956;2023-02-11T10:51:30;14.20;;;7.60;;
67986;SDS011;54767;53.800;15.956;2023-02-11T10:56:50;15.20;;;8.10;;
67986;SDS011;54767;53.800;15.956;2023-02-11T10:59:29;16.60;;;7.80;;
67986;SDS011;54767;53.800;15.956;2023-02-11T11:02:04;17.40;;;8.70;;
67986;SDS011;54767;53.800;15.956;2023-02-11T11:04:48;15.30;;;7.10;;
67986;SDS011;54767;53.800;15.956;2023-02-11T11:14:58;13.90;;;6.60;;
67986;SDS011;54767;53.800;15.956;2023-02-11T11:17:29;14.50;;;6.60;;
67986;SDS011;54767;53.800;15.956;2023-02-11T11:20:14;12.00;;;6.50;;
67986;SDS011;54767;53.800;15.956;2023-02-11T11:22:43;12.90;;;6.20;;
67986;SDS011;54767;53.800;15.956;2023-02-11T11:25:26;13.60;;;6.50;;
67986;SDS011;54767;53.800;15.956;2023-02-11T11:27:56;14.00;;;6.50;;
67986;SDS011;54767;53.800;15.956;2023-02-11T11:30:32;12.00;;;6.00;;
67986;SDS011;54767;53.800;15.956;2023-02-11T11:33:14;15.80;;;6.20;;
67986;SDS011;54767;53.800;15.956;2023-02-11T11:38:34;12.20;;;6.00;;
67986;SDS011;54767;53.800;15.956;2023-02-11T11:41:22;12.80;;;5.80;;
67986;SDS011;54767;53.800;15.956;2023-02-11T11:44:00;12.90;;;5.10;;
67986;SDS011;54767;53.800;15.956;2023-02-11T11:46:32;12.70;;;5.60;;
67986;SDS011;54767;53.800;15.956;2023-02-11T11:49:06;9.40;;;5.20;;
67986;SDS011;54767;53.800;15.956;2023-02-11T11:51:40;13.30;;;4.90;;
67986;SDS011;54767;53.800;15.956;2023-02-11T11:54:12;12.90;;;5.20;;
67986;SDS011;54767;53.800;15.956;2023-02-11T11:56:57;8.80;;;3.80;;
67986;SDS011;54767;53.800;15.956;2023-02-11T11:59:30;12.30;;;4.70;;
67986;SDS011;54767;53.800;15.956;2023-02-11T12:05:10;10.90;;;4.00;;
67986;SDS011;54767;53.800;15.956;2023-02-11T12:07:57;9.70;;;3.50;;
67986;SDS011;54767;53.800;15.956;2023-02-11T12:24:30;9.30;;;3.00;;
67986;SDS011;54767;53.800;15.956;2023-02-11T12:32:23;9.70;;;2.90;;
67986;SDS011;54767;53.800;15.956;2023-02-11T12:41:02;10.10;;;2.10;;
67986;SDS011;54767;53.800;15.956;2023-02-11T12:44:18;12.20;;;3.00;;
67986;SDS011;54767;53.800;15.956;2023-02-11T12:55:21;8.60;;;2.70;;
67986;SDS011;54767;53.800;15.956;2023-02-11T12:57:53;13.40;;;2.80;;
67986;SDS011;54767;53.800;15.956;2023-02-11T13:03:41;12.20;;;3.40;;
67986;SDS011;54767;53.800;15.956;2023-02-11T13:06:15;11.00;;;3.10;;
67986;SDS011;54767;53.800;15.956;2023-02-11T13:08:49;12.90;;;4.10;;
67986;SDS011;54767;53.800;15.956;2023-02-11T13:11:30;13.40;;;4.80;;
67986;SDS011;54767;53.800;15.956;2023-02-11T13:14:20;8.20;;;3.00;;
67986;SDS011;54767;53.800;15.956;2023-02-11T13:16:52;9.50;;;3.90;;
67986;SDS011;54767;53.800;15.956;2023-02-11T13:22:19;13.20;;;6.60;;
67986;SDS011;54767;53.800;15.956;2023-02-11T13:38:25;15.10;;;3.70;;
67986;SDS011;54767;53.800;15.956;2023-02-11T13:40:58;6.60;;;2.70;;
67986;SDS011;54767;53.800;15.956;2023-02-11T13:43:32;12.00;;;3.10;;
67986;SDS011;54767;53.800;15.956;2023-02-11T13:48:38;11.50;;;2.60;;
67986;SDS011;54767;53.800;15.956;2023-02-11T13:51:16;11.30;;;2.50;;
67986;SDS011;54767;53.800;15.956;2023-02-11T13:54:01;11.80;;;2.90;;
67986;SDS011;54767;53.800;15.956;2023-02-11T13:56:36;6.80;;;2.20;;
67986;SDS011;54767;53.800;15.956;2023-02-11T14:02:30;10.30;;;3.30;;
67986;SDS011;54767;53.800;15.956;2023-02-11T14:05:21;12.00;;;3.00;;
67986;SDS011;54767;53.800;15.956;2023-02-11T14:11:00;8.20;;;3.40;;
67986;SDS011;54767;53.800;15.956;2023-02-11T14:16:20;12.90;;;3.80;;
67986;SDS011;54767;53.800;15.956;2023-02-11T14:19:04;10.30;;;2.70;;
67986;SDS011;54767;53.800;15.956;2023-02-11T14:21:37;12.90;;;2.80;;
67986;SDS011;54767;53.800;15.956;2023-02-11T14:40:29;12.90;;;3.80;;
67986;SDS011;54767;53.800;15.956;2023-02-11T14:43:15;16.00;;;6.00;;
67986;SDS011;54767;53.800;15.956;2023-02-11T14:45:52;15.10;;;4.30;;
67986;SDS011;54767;53.800;15.956;2023-02-11T14:48:30;16.20;;;3.70;;
67986;SDS011;54767;53.800;15.956;2023-02-11T14:51:05;12.90;;;5.20;;
67986;SDS011;54767;53.800;15.956;2023-02-11T14:53:38;14.20;;;4.20;;
67986;SDS011;54767;53.800;15.956;2023-02-11T14:56:15;14.20;;;3.50;;
67986;SDS011;54767;53.800;15.956;2023-02-11T14:58:53;12.90;;;5.30;;
67986;SDS011;54767;53.800;15.956;2023-02-11T15:04:02;17.40;;;7.70;;
67986;SDS011;54767;53.800;15.956;2023-02-11T15:06:36;9.30;;;3.40;;
67986;SDS011;54767;53.800;15.956;2023-02-11T15:11:48;11.70;;;3.10;;
67986;SDS011;54767;53.800;15.956;2023-02-11T15:16:57;11.70;;;2.90;;
67986;SDS011;54767;53.800;15.956;2023-02-11T15:19:36;8.20;;;2.50;;
67986;SDS011;54767;53.800;15.956;2023-02-11T15:22:42;10.10;;;2.80;;
67986;SDS011;54767;53.800;15.956;2023-02-11T15:25:11;16.90;;;3.40;;
67986;SDS011;54767;53.800;15.956;2023-02-11T15:27:46;9.20;;;1.70;;
67986;SDS011;54767;53.800;15.956;2023-02-11T15:32:55;13.30;;;3.00;;
67986;SDS011;54767;53.800;15.956;2023-02-11T15:38:02;15.00;;;4.70;;
67986;SDS011;54767;53.800;15.956;2023-02-11T15:40:32;17.70;;;5.30;;
67986;SDS011;54767;53.800;15.956;2023-02-11T15:43:04;15.60;;;3.90;;
67986;SDS011;54767;53.800;15.956;2023-02-11T15:48:24;13.80;;;3.80;;
67986;SDS011;54767;53.800;15.956;2023-02-11T15:51:01;16.70;;;6.10;;
67986;SDS011;54767;53.800;15.956;2023-02-11T15:53:48;14.80;;;4.80;;
67986;SDS011;54767;53.800;15.956;2023-02-11T15:56:26;16.10;;;5.20;;
67986;SDS011;54767;53.800;15.956;2023-02-11T15:58:58;12.40;;;3.70;;
67986;SDS011;54767;53.800;15.956;2023-02-11T16:01:36;13.00;;;3.40;;
67986;SDS011;54767;53.800;15.956;2023-02-11T16:04:12;10.40;;;3.40;;
67986;SDS011;54767;53.800;15.956;2023-02-11T16:06:51;13.90;;;3.40;;
67986;SDS011;54767;53.800;15.956;2023-02-11T16:09:23;20.60;;;4.60;;
67986;SDS011;54767;53.800;15.956;2023-02-11T16:12:03;15.20;;;3.80;;
67986;SDS011;54767;53.800;15.956;2023-02-11T16:14:49;12.90;;;3.80;;
67986;SDS011;54767;53.800;15.956;2023-02-11T16:19:46;12.00;;;3.30;;
67986;SDS011;54767;53.800;15.956;2023-02-11T16:22:18;12.30;;;2.90;;
67986;SDS011;54767;53.800;15.956;2023-02-11T16:24:51;9.30;;;2.80;;
67986;SDS011;54767;53.800;15.956;2023-02-11T16:30:22;14.10;;;3.40;;
67986;SDS011;54767;53.800;15.956;2023-02-11T16:33:08;18.90;;;3.50;;
67986;SDS011;54767;53.800;15.956;2023-02-11T16:35:38;14.30;;;3.10;;
67986;SDS011;54767;53.800;15.956;2023-02-11T16:38:07;11.30;;;2.70;;
67986;SDS011;54767;53.800;15.956;2023-02-11T16:40:35;11.60;;;2.70;;
67986;SDS011;54767;53.800;15.956;2023-02-11T16:43:04;15.20;;;4.20;;
67986;SDS011;54767;53.800;15.956;2023-02-11T16:45:35;38.90;;;12.60;;
67986;SDS011;54767;53.800;15.956;2023-02-11T16:48:06;71.60;;;20.70;;
67986;SDS011;54767;53.800;15.956;2023-02-11T16:50:36;120.20;;;32.30;;
67986;SDS011;54767;53.800;15.956;2023-02-11T16:53:05;40.70;;;15.90;;
67986;SDS011;54767;53.800;15.956;2023-02-11T16:55:33;52.10;;;21.10;;
67986;SDS011;54767;53.800;15.956;2023-02-11T16:58:02;39.30;;;19.10;;
67986;SDS011;54767;53.800;15.956;2023-02-11T17:00:30;33.80;;;18.60;;
67986;SDS011;54767;53.800;15.956;2023-02-11T17:02:59;22.40;;;7.20;;
67986;SDS011;54767;53.800;15.956;2023-02-11T17:05:27;18.10;;;8.60;;
67986;SDS011;54767;53.800;15.956;2023-02-11T17:07:56;20.00;;;12.20;;
67986;SDS011;54767;53.800;15.956;2023-02-11T17:10:24;20.00;;;9.40;;
67986;SDS011;54767;53.800;15.956;2023-02-11T17:12:52;19.80;;;8.50;;
67986;SDS011;54767;53.800;15.956;2023-02-11T17:15:21;18.70;;;6.80;;
67986;SDS011;54767;53.800;15.956;2023-02-11T17:17:49;14.60;;;5.60;;
67986;SDS011;54767;53.800;15.956;2023-02-11T17:20:18;17.50;;;5.00;;
67986;SDS011;54767;53.800;15.956;2023-02-11T17:22:48;17.00;;;5.00;;
67986;SDS011;54767;53.800;15.956;2023-02-11T17:25:17;16.40;;;4.10;;
67986;SDS011;54767;53.800;15.956;2023-02-11T17:27:45;17.10;;;4.10;;
67986;SDS011;54767;53.800;15.956;2023-02-11T17:30:13;14.40;;;4.40;;
67986;SDS011;54767;53.800;15.956;2023-02-11T17:32:42;15.40;;;4.10;;
67986;SDS011;54767;53.800;15.956;2023-02-11T17:35:10;14.90;;;3.90;;
67986;SDS011;54767;53.800;15.956;2023-02-11T17:37:39;12.50;;;4.10;;
67986;SDS011;54767;53.800;15.956;2023-02-11T17:40:08;14.30;;;4.40;;
67986;SDS011;54767;53.800;15.956;2023-02-11T17:42:37;10.50;;;3.70;;
67986;SDS011;54767;53.800;15.956;2023-02-11T17:45:06;13.30;;;3.90;;
67986;SDS011;54767;53.800;15.956;2023-02-11T17:50:03;12.60;;;3.20;;